createdAt,value
2018-11-11T00:00:43.554Z,0.00
2018-11-11T00:01:43.550Z,0.00
2018-11-11T00:02:43.717Z,0.00
2018-11-11T00:03:43.526Z,0.00
2018-11-11T00:04:43.511Z,0.00
2018-11-11T00:05:43.522Z,0.00
2018-11-11T00:06:43.491Z,0.00
2018-11-11T00:07:43.486Z,0.00
2018-11-11T00:08:43.521Z,0.00
2018-11-11T00:09:43.458Z,0.00
2018-11-11T00:10:43.448Z,0.00
2018-11-11T00:11:43.434Z,0.00
2018-11-11T00:12:43.427Z,0.00
2018-11-11T00:13:43.415Z,0.00
2018-11-11T00:14:43.478Z,0.00
2018-11-11T00:15:43.392Z,0.00
2018-11-11T00:16:43.385Z,0.00
2018-11-11T00:17:43.380Z,0.00
2018-11-11T00:18:43.359Z,0.00
2018-11-11T00:19:43.353Z,0.00
2018-11-11T00:20:43.403Z,0.00
2018-11-11T00:21:43.357Z,0.00
2018-11-11T00:22:43.317Z,0.00
2018-11-11T00:23:43.317Z,0.00
2018-11-11T00:24:43.294Z,0.00
2018-11-11T00:25:43.286Z,0.00
2018-11-11T00:26:43.316Z,0.00
2018-11-11T00:27:43.268Z,0.00
2018-11-11T00:28:43.333Z,0.00
2018-11-11T00:29:43.241Z,0.00
2018-11-11T00:30:43.229Z,0.00
2018-11-11T00:31:43.218Z,0.00
2018-11-11T00:32:43.277Z,0.00
2018-11-11T00:33:43.199Z,0.00
2018-11-11T00:34:43.190Z,0.00
2018-11-11T00:35:43.179Z,0.00
2018-11-11T00:36:43.170Z,0.00
2018-11-11T00:37:43.154Z,0.00
2018-11-11T00:38:43.200Z,0.00
2018-11-11T00:39:43.202Z,0.00
2018-11-11T00:40:43.139Z,0.00
2018-11-11T00:41:43.114Z,0.00
2018-11-11T00:42:43.102Z,0.00
2018-11-11T00:43:43.097Z,0.00
2018-11-11T00:44:43.124Z,0.00
2018-11-11T00:45:43.065Z,0.00
2018-11-11T00:46:43.089Z,0.00
2018-11-11T00:47:43.048Z,0.00
2018-11-11T00:48:43.051Z,0.00
2018-11-11T00:49:43.027Z,0.00
2018-11-11T00:50:43.056Z,0.00
2018-11-11T00:51:42.998Z,0.00
2018-11-11T00:52:43.007Z,0.00
2018-11-11T00:53:42.985Z,0.00
2018-11-11T00:54:42.969Z,0.00
2018-11-11T00:55:42.960Z,0.00
2018-11-11T00:56:42.993Z,0.00
2018-11-11T00:57:42.935Z,0.00
2018-11-11T00:58:42.943Z,0.00
2018-11-11T00:59:42.918Z,0.00
2018-11-11T01:00:42.903Z,0.00
2018-11-11T01:01:42.894Z,0.00
2018-11-11T01:02:42.946Z,0.00
2018-11-11T01:03:42.874Z,0.00
2018-11-11T01:04:42.877Z,0.00
2018-11-11T01:05:42.850Z,0.00
2018-11-11T01:06:42.837Z,0.00
2018-11-11T01:07:42.841Z,0.00
2018-11-11T01:08:42.865Z,0.00
2018-11-11T01:09:42.808Z,0.00
2018-11-11T01:10:42.823Z,0.00
2018-11-11T01:11:42.784Z,0.00
2018-11-11T01:12:42.779Z,0.00
2018-11-11T01:13:42.769Z,0.00
2018-11-11T01:14:42.791Z,0.00
2018-11-11T01:15:42.789Z,0.00
2018-11-11T01:16:42.745Z,0.00
2018-11-11T01:17:42.719Z,0.00
2018-11-11T01:18:42.709Z,0.00
2018-11-11T01:19:42.697Z,0.00
2018-11-11T01:20:42.743Z,0.00
2018-11-11T01:21:42.677Z,0.00
2018-11-11T01:22:42.699Z,0.00
2018-11-11T01:23:42.652Z,0.00
2018-11-11T01:24:42.643Z,0.00
2018-11-11T01:25:42.635Z,0.00
2018-11-11T01:26:42.660Z,0.00
2018-11-11T01:27:42.618Z,0.00
2018-11-11T01:28:42.618Z,0.00
2018-11-11T01:29:42.596Z,0.00
2018-11-11T01:30:42.583Z,0.00
2018-11-11T01:31:42.576Z,0.00
2018-11-11T01:32:42.647Z,0.00
2018-11-11T01:33:42.549Z,0.00
2018-11-11T01:34:42.553Z,0.00
2018-11-11T01:35:42.528Z,0.00
2018-11-11T01:36:42.517Z,0.00
2018-11-11T01:37:42.512Z,0.00
2018-11-11T01:38:42.563Z,0.00
2018-11-11T01:39:42.483Z,0.00
2018-11-11T01:40:42.471Z,0.00
2018-11-11T01:41:42.479Z,0.00
2018-11-11T01:42:42.449Z,0.00
2018-11-11T01:43:42.443Z,0.00
2018-11-11T01:44:42.469Z,0.00
2018-11-11T01:45:42.419Z,0.00
2018-11-11T01:46:42.411Z,0.00
2018-11-11T01:47:42.413Z,0.00
2018-11-11T01:48:42.384Z,0.00
2018-11-11T01:49:42.373Z,0.00
2018-11-11T01:50:42.401Z,0.00
2018-11-11T01:51:42.352Z,0.00
2018-11-11T01:52:42.343Z,0.00
2018-11-11T01:53:42.348Z,0.00
2018-11-11T01:54:42.322Z,0.00
2018-11-11T01:55:42.313Z,0.00
2018-11-11T01:56:42.355Z,0.00
2018-11-11T01:57:42.289Z,0.00
2018-11-11T01:58:42.276Z,0.00
2018-11-11T01:59:42.272Z,0.00
2018-11-11T02:00:42.254Z,0.00
2018-11-11T02:01:42.249Z,0.00
2018-11-11T02:02:42.275Z,0.00
2018-11-11T02:03:42.226Z,0.00
2018-11-11T02:04:42.218Z,0.00
2018-11-11T02:05:42.208Z,0.00
2018-11-11T02:06:42.193Z,0.00
2018-11-11T02:07:42.180Z,0.00
2018-11-11T02:08:42.380Z,0.00
2018-11-11T02:09:42.218Z,0.00
2018-11-11T02:10:42.148Z,0.00
2018-11-11T02:11:42.135Z,0.00
2018-11-11T02:12:42.150Z,0.00
2018-11-11T02:13:42.123Z,0.00
2018-11-11T02:14:42.136Z,0.00
2018-11-11T02:15:42.094Z,0.00
2018-11-11T02:16:42.082Z,0.00
2018-11-11T02:17:42.078Z,0.00
2018-11-11T02:18:42.082Z,0.00
2018-11-11T02:19:42.059Z,0.00
2018-11-11T02:20:42.098Z,0.00
2018-11-11T02:21:42.091Z,0.00
2018-11-11T02:22:42.019Z,0.00
2018-11-11T02:23:42.010Z,0.00
2018-11-11T02:24:41.998Z,0.00
2018-11-11T02:25:42.013Z,0.00
2018-11-11T02:26:42.015Z,0.00
2018-11-11T02:27:41.970Z,0.00
2018-11-11T02:28:41.954Z,0.00
2018-11-11T02:29:41.940Z,0.00
2018-11-11T02:30:41.935Z,0.00
2018-11-11T02:31:41.926Z,0.00
2018-11-11T02:32:41.983Z,0.00
2018-11-11T02:33:41.907Z,0.00
2018-11-11T02:34:41.892Z,0.00
2018-11-11T02:35:41.879Z,0.00
2018-11-11T02:36:41.868Z,0.00
2018-11-11T02:37:41.928Z,0.00
2018-11-11T02:38:41.885Z,0.00
2018-11-11T02:39:41.858Z,0.00
2018-11-11T02:40:41.828Z,0.00
2018-11-11T02:41:41.872Z,0.00
2018-11-11T02:42:41.804Z,0.00
2018-11-11T02:43:41.796Z,0.00
2018-11-11T02:44:41.819Z,0.00
2018-11-11T02:45:41.781Z,0.00
2018-11-11T02:46:41.761Z,0.00
2018-11-11T02:47:41.749Z,0.00
2018-11-11T02:48:41.744Z,0.00
2018-11-11T02:49:41.732Z,0.00
2018-11-11T02:50:41.767Z,0.00
2018-11-11T02:51:41.707Z,0.00
2018-11-11T02:52:41.693Z,0.00
2018-11-11T02:53:41.688Z,0.00
2018-11-11T02:54:41.674Z,0.00
2018-11-11T02:55:41.660Z,0.00
2018-11-11T02:56:41.703Z,0.00
2018-11-11T02:57:41.652Z,0.00
2018-11-11T02:58:41.634Z,0.00
2018-11-11T02:59:41.637Z,0.00
2018-11-11T03:00:41.614Z,0.00
2018-11-11T03:01:41.603Z,0.00
2018-11-11T03:02:41.623Z,0.00
2018-11-11T03:03:41.586Z,0.00
2018-11-11T03:04:41.564Z,0.00
2018-11-11T03:05:41.574Z,0.00
2018-11-11T03:06:41.548Z,0.00
2018-11-11T03:07:41.537Z,0.00
2018-11-11T03:08:41.566Z,0.00
2018-11-11T03:09:41.510Z,0.00
2018-11-11T03:10:41.501Z,0.00
2018-11-11T03:11:41.502Z,0.00
2018-11-11T03:12:41.480Z,0.00
2018-11-11T03:13:41.473Z,0.00
2018-11-11T03:14:41.649Z,0.00
2018-11-11T03:15:41.445Z,0.00
2018-11-11T03:16:41.434Z,0.00
2018-11-11T03:17:41.432Z,0.00
2018-11-11T03:18:41.431Z,0.00
2018-11-11T03:19:41.411Z,0.00
2018-11-11T03:20:41.432Z,0.00
2018-11-11T03:21:41.381Z,0.00
2018-11-11T03:22:41.391Z,0.00
2018-11-11T03:23:41.358Z,0.00
2018-11-11T03:24:41.351Z,0.00
2018-11-11T03:25:41.356Z,0.00
2018-11-11T03:26:41.364Z,0.00
2018-11-11T03:27:41.323Z,0.00
2018-11-11T03:28:41.313Z,0.00
2018-11-11T03:29:41.298Z,0.00
2018-11-11T03:30:41.284Z,0.00
2018-11-11T03:31:41.298Z,0.00
2018-11-11T03:32:41.365Z,0.00
2018-11-11T03:33:41.253Z,0.00
2018-11-11T03:34:41.238Z,0.00
2018-11-11T03:35:41.231Z,0.00
2018-11-11T03:36:41.221Z,0.00
2018-11-11T03:37:41.235Z,0.00
2018-11-11T03:38:41.247Z,0.00
2018-11-11T03:39:41.187Z,0.00
2018-11-11T03:40:41.175Z,0.00
2018-11-11T03:41:41.166Z,0.00
2018-11-11T03:42:41.154Z,0.00
2018-11-11T03:43:41.150Z,0.00
2018-11-11T03:44:41.178Z,0.00
2018-11-11T03:45:41.136Z,0.00
2018-11-11T03:46:41.131Z,0.00
2018-11-11T03:47:41.102Z,0.00
2018-11-11T03:48:41.097Z,0.00
2018-11-11T03:49:41.083Z,0.00
2018-11-11T03:50:41.360Z,0.00
2018-11-11T03:51:41.056Z,0.00
2018-11-11T03:52:41.066Z,0.00
2018-11-11T03:53:41.040Z,0.00
2018-11-11T03:54:41.030Z,0.00
2018-11-11T03:55:41.017Z,0.00
2018-11-11T03:56:41.040Z,0.00
2018-11-11T03:57:40.991Z,0.00
2018-11-11T03:58:41.048Z,0.00
2018-11-11T03:59:40.967Z,0.00
2018-11-11T04:00:40.962Z,0.00
2018-11-11T04:01:40.955Z,0.00
2018-11-11T04:02:40.976Z,0.00
2018-11-11T04:03:40.928Z,0.00
2018-11-11T04:04:40.917Z,0.00
2018-11-11T04:05:40.929Z,0.00
2018-11-11T04:06:40.891Z,0.00
2018-11-11T04:07:40.898Z,0.00
2018-11-11T04:08:40.927Z,0.00
2018-11-11T04:09:40.867Z,0.00
2018-11-11T04:10:40.850Z,0.00
2018-11-11T04:11:40.856Z,0.00
2018-11-11T04:12:40.829Z,0.00
2018-11-11T04:13:40.821Z,0.00
2018-11-11T04:14:40.852Z,0.00
2018-11-11T04:15:40.805Z,0.00
2018-11-11T04:16:40.783Z,0.00
2018-11-11T04:17:40.793Z,0.00
2018-11-11T04:18:40.763Z,0.00
2018-11-11T04:19:40.749Z,0.00
2018-11-11T04:20:40.786Z,0.00
2018-11-11T04:21:40.729Z,0.00
2018-11-11T04:22:40.736Z,0.00
2018-11-11T04:23:40.726Z,0.00
2018-11-11T04:24:40.702Z,0.00
2018-11-11T04:25:40.688Z,0.00
2018-11-11T04:26:40.716Z,0.00
2018-11-11T04:27:40.665Z,0.00
2018-11-11T04:28:40.651Z,0.00
2018-11-11T04:29:40.648Z,0.00
2018-11-11T04:30:40.641Z,0.00
2018-11-11T04:31:40.619Z,0.00
2018-11-11T04:32:40.659Z,0.00
2018-11-11T04:33:40.605Z,0.00
2018-11-11T04:34:40.593Z,0.00
2018-11-11T04:35:40.590Z,0.00
2018-11-11T04:36:40.566Z,0.00
2018-11-11T04:37:40.556Z,0.00
2018-11-11T04:38:40.588Z,0.00
2018-11-11T04:39:40.534Z,0.00
2018-11-11T04:40:40.520Z,0.00
2018-11-11T04:41:40.524Z,0.00
2018-11-11T04:42:40.499Z,0.00
2018-11-11T04:43:40.495Z,0.00
2018-11-11T04:44:40.515Z,0.00
2018-11-11T04:45:40.464Z,0.00
2018-11-11T04:46:40.453Z,0.00
2018-11-11T04:47:40.461Z,0.00
2018-11-11T04:48:40.436Z,0.00
2018-11-11T04:49:40.421Z,0.00
2018-11-11T04:50:40.462Z,0.00
2018-11-11T04:51:40.399Z,0.00
2018-11-11T04:52:40.389Z,0.00
2018-11-11T04:53:40.388Z,0.00
2018-11-11T04:54:40.361Z,0.00
2018-11-11T04:55:40.353Z,0.00
2018-11-11T04:56:40.376Z,0.00
2018-11-11T04:57:40.332Z,0.00
2018-11-11T04:58:40.322Z,0.00
2018-11-11T04:59:40.321Z,0.00
2018-11-11T05:00:40.305Z,0.00
2018-11-11T05:01:40.392Z,0.00
2018-11-11T05:02:40.332Z,0.00
2018-11-11T05:03:40.269Z,0.00
2018-11-11T05:04:40.311Z,0.00
2018-11-11T05:05:40.248Z,0.00
2018-11-11T05:06:40.232Z,0.00
2018-11-11T05:07:40.226Z,0.00
2018-11-11T05:08:40.244Z,0.00
2018-11-11T05:09:40.198Z,0.00
2018-11-11T05:10:40.193Z,0.00
2018-11-11T05:11:40.178Z,0.00
2018-11-11T05:12:40.177Z,0.00
2018-11-11T05:13:40.152Z,0.00
2018-11-11T05:14:40.181Z,0.00
2018-11-11T05:15:40.129Z,0.00
2018-11-11T05:16:40.128Z,0.00
2018-11-11T05:17:40.106Z,0.00
2018-11-11T05:18:40.096Z,0.00
2018-11-11T05:19:40.105Z,0.00
2018-11-11T05:20:40.111Z,0.00
2018-11-11T05:21:40.114Z,0.00
2018-11-11T05:22:40.051Z,0.00
2018-11-11T05:23:40.042Z,0.00
2018-11-11T05:24:40.033Z,0.00
2018-11-11T05:25:40.051Z,0.00
2018-11-11T05:26:40.056Z,0.00
2018-11-11T05:27:40.001Z,0.00
2018-11-11T05:28:39.990Z,0.00
2018-11-11T05:29:39.980Z,0.00
2018-11-11T05:30:39.962Z,0.00
2018-11-11T05:31:39.972Z,0.00
2018-11-11T05:32:40.002Z,0.00
2018-11-11T05:33:39.938Z,0.00
2018-11-11T05:34:39.929Z,0.00
2018-11-11T05:35:39.916Z,0.00
2018-11-11T05:36:39.902Z,0.00
2018-11-11T05:37:39.889Z,0.00
2018-11-11T05:38:39.938Z,0.00
2018-11-11T05:39:39.871Z,0.00
2018-11-11T05:40:39.863Z,0.00
2018-11-11T05:41:39.853Z,0.00
2018-11-11T05:42:39.837Z,0.00
2018-11-11T05:43:39.829Z,0.00
2018-11-11T05:44:39.907Z,0.00
2018-11-11T05:45:39.801Z,0.00
2018-11-11T05:46:39.790Z,0.00
2018-11-11T05:47:39.786Z,0.00
2018-11-11T05:48:39.773Z,0.00
2018-11-11T05:49:39.761Z,0.00
2018-11-11T05:50:39.814Z,0.00
2018-11-11T05:51:39.737Z,0.00
2018-11-11T05:52:39.738Z,0.00
2018-11-11T05:53:39.714Z,0.00
2018-11-11T05:54:39.704Z,0.00
2018-11-11T05:55:39.696Z,0.00
2018-11-11T05:56:39.740Z,0.00
2018-11-11T05:57:39.673Z,0.00
2018-11-11T05:58:39.661Z,0.00
2018-11-11T05:59:39.649Z,0.00
2018-11-11T06:00:39.642Z,0.00
2018-11-11T06:01:39.632Z,0.00
2018-11-11T06:02:39.685Z,0.00
2018-11-11T06:03:39.610Z,0.00
2018-11-11T06:04:39.602Z,0.00
2018-11-11T06:05:39.587Z,0.00
2018-11-11T06:06:39.586Z,0.00
2018-11-11T06:07:39.569Z,0.00
2018-11-11T06:08:39.623Z,4.00
2018-11-11T06:09:39.545Z,4.00
2018-11-11T06:10:39.537Z,4.00
2018-11-11T06:11:39.520Z,4.00
2018-11-11T06:12:39.510Z,4.00
2018-11-11T06:13:39.565Z,8.00
2018-11-11T06:14:39.557Z,8.00
2018-11-11T06:15:39.477Z,12.00
2018-11-11T06:16:39.488Z,12.00
2018-11-11T06:17:39.470Z,12.00
2018-11-11T06:18:39.446Z,16.00
2018-11-11T06:19:39.436Z,20.00
2018-11-11T06:20:39.618Z,24.00
2018-11-11T06:21:39.434Z,28.00
2018-11-11T06:22:39.404Z,36.00
2018-11-11T06:23:39.399Z,40.00
2018-11-11T06:24:39.385Z,48.00
2018-11-11T06:25:39.374Z,56.00
2018-11-11T06:26:39.394Z,64.00
2018-11-11T06:27:39.490Z,76.00
2018-11-11T06:28:39.343Z,84.00
2018-11-11T06:29:39.333Z,96.00
2018-11-11T06:30:39.320Z,112.00
2018-11-11T06:31:39.309Z,124.00
2018-11-11T06:32:39.347Z,132.00
2018-11-11T06:33:39.292Z,140.00
2018-11-11T06:34:39.293Z,152.00
2018-11-11T06:35:39.265Z,168.00
2018-11-11T06:36:39.257Z,192.00
2018-11-11T06:37:39.248Z,208.00
2018-11-11T06:38:39.287Z,228.00
2018-11-11T06:39:39.221Z,252.00
2018-11-11T06:40:39.233Z,276.00
2018-11-11T06:41:39.199Z,312.00
2018-11-11T06:42:39.198Z,356.00
2018-11-11T06:43:39.181Z,392.00
2018-11-11T06:44:39.211Z,416.00
2018-11-11T06:45:39.160Z,424.00
2018-11-11T06:46:39.145Z,416.00
2018-11-11T06:47:39.161Z,408.00
2018-11-11T06:48:39.127Z,420.00
2018-11-11T06:49:39.123Z,432.00
2018-11-11T06:50:39.201Z,444.00
2018-11-11T06:51:39.095Z,464.00
2018-11-11T06:52:39.101Z,484.00
2018-11-11T06:53:39.071Z,508.00
2018-11-11T06:54:39.075Z,580.00
2018-11-11T06:55:39.048Z,620.00
2018-11-11T06:56:39.097Z,596.00
2018-11-11T06:57:39.029Z,564.00
2018-11-11T06:58:39.019Z,556.00
2018-11-11T06:59:39.005Z,560.00
2018-11-11T07:00:38.992Z,560.00
2018-11-11T07:01:39.009Z,600.00
2018-11-11T07:02:39.026Z,652.00
2018-11-11T07:03:38.970Z,708.00
2018-11-11T07:04:38.956Z,788.00
2018-11-11T07:05:38.942Z,840.00
2018-11-11T07:06:38.931Z,920.00
2018-11-11T07:07:39.004Z,1056.00
2018-11-11T07:08:39.199Z,1204.00
2018-11-11T07:09:38.913Z,1356.00
2018-11-11T07:10:38.893Z,1452.00
2018-11-11T07:11:38.882Z,1532.00
2018-11-11T07:12:38.880Z,1560.00
2018-11-11T07:13:38.862Z,1532.00
2018-11-11T07:14:38.881Z,1468.00
2018-11-11T07:15:38.839Z,1380.00
2018-11-11T07:16:38.840Z,1472.00
2018-11-11T07:17:38.821Z,1760.00
2018-11-11T07:18:38.809Z,2036.00
2018-11-11T07:19:38.787Z,2088.00
2018-11-11T07:20:38.835Z,1916.00
2018-11-11T07:21:38.773Z,1656.00
2018-11-11T07:22:38.756Z,1528.00
2018-11-11T07:23:38.884Z,1540.00
2018-11-11T07:24:38.731Z,1924.00
2018-11-11T07:25:38.721Z,2252.00
2018-11-11T07:26:38.746Z,2480.00
2018-11-11T07:27:38.707Z,2440.00
2018-11-11T07:28:38.688Z,2260.00
2018-11-11T07:29:38.677Z,1904.00
2018-11-11T07:30:38.691Z,1796.00
2018-11-11T07:31:38.657Z,1944.00
2018-11-11T07:32:38.688Z,2328.00
2018-11-11T07:33:38.635Z,2124.00
2018-11-11T07:34:38.638Z,2100.00
2018-11-11T07:35:38.617Z,2148.00
2018-11-11T07:36:38.824Z,2176.00
2018-11-11T07:37:38.769Z,2304.00
2018-11-11T07:38:38.723Z,2756.00
2018-11-11T07:39:38.613Z,3616.00
2018-11-11T07:40:38.577Z,3856.00
2018-11-11T07:41:38.549Z,3916.00
2018-11-11T07:42:38.550Z,4128.00
2018-11-11T07:43:38.544Z,4364.00
2018-11-11T07:44:38.633Z,4436.00
2018-11-11T07:45:38.519Z,4716.00
2018-11-11T07:46:38.498Z,5536.00
2018-11-11T07:47:38.530Z,6032.00
2018-11-11T07:48:38.497Z,5360.00
2018-11-11T07:49:38.481Z,5076.00
2018-11-11T07:50:38.480Z,4512.00
2018-11-11T07:51:38.445Z,3680.00
2018-11-11T07:52:38.438Z,3512.00
2018-11-11T07:53:38.428Z,3368.00
2018-11-11T07:54:38.418Z,3508.00
2018-11-11T07:55:38.420Z,3572.00
2018-11-11T07:56:38.427Z,3776.00
2018-11-11T07:57:38.379Z,3896.00
2018-11-11T07:58:38.482Z,4200.00
2018-11-11T07:59:38.397Z,4288.00
2018-11-11T08:00:38.338Z,4288.00
2018-11-11T08:01:38.411Z,4204.00
2018-11-11T08:02:38.368Z,4116.00
2018-11-11T08:03:38.324Z,3988.00
2018-11-11T08:04:38.298Z,3892.00
2018-11-11T08:05:38.296Z,4032.00
2018-11-11T08:06:38.273Z,4104.00
2018-11-11T08:07:38.277Z,4204.00
2018-11-11T08:08:38.304Z,4340.00
2018-11-11T08:09:38.246Z,4628.00
2018-11-11T08:10:38.245Z,5512.00
2018-11-11T08:11:38.222Z,5664.00
2018-11-11T08:12:38.213Z,4852.00
2018-11-11T08:13:38.217Z,6264.00
2018-11-11T08:14:38.259Z,5204.00
2018-11-11T08:15:38.171Z,5548.00
2018-11-11T08:16:38.190Z,5988.00
2018-11-11T08:17:38.161Z,5976.00
2018-11-11T08:18:38.145Z,5972.00
2018-11-11T08:19:38.128Z,6064.00
2018-11-11T08:20:38.155Z,6100.00
2018-11-11T08:21:38.121Z,6144.00
2018-11-11T08:22:38.120Z,6236.00
2018-11-11T08:23:38.093Z,6124.00
2018-11-11T08:24:38.601Z,6012.00
2018-11-11T08:25:38.157Z,5984.00
2018-11-11T08:26:38.094Z,5968.00
2018-11-11T08:27:38.046Z,5968.00
2018-11-11T08:28:38.043Z,5988.00
2018-11-11T08:29:38.037Z,6040.00
2018-11-11T08:30:38.004Z,6112.00
2018-11-11T08:31:38.003Z,6212.00
2018-11-11T08:32:38.024Z,6400.00
2018-11-11T08:33:38.046Z,6576.00
2018-11-11T08:34:37.962Z,6248.00
2018-11-11T08:35:37.965Z,6316.00
2018-11-11T08:36:37.952Z,6240.00
2018-11-11T08:37:37.937Z,6228.00
2018-11-11T08:38:37.992Z,6256.00
2018-11-11T08:39:37.919Z,6284.00
2018-11-11T08:40:37.978Z,6308.00
2018-11-11T08:41:37.958Z,6340.00
2018-11-11T08:42:37.882Z,6368.00
2018-11-11T08:43:37.864Z,6464.00
2018-11-11T08:44:37.898Z,6432.00
2018-11-11T08:45:37.834Z,6812.00
2018-11-11T08:46:37.829Z,6948.00
2018-11-11T08:47:37.875Z,6756.00
2018-11-11T08:48:37.821Z,5920.00
2018-11-11T08:49:37.798Z,6728.00
2018-11-11T08:50:37.848Z,6608.00
2018-11-11T08:51:37.771Z,6704.00
2018-11-11T08:52:37.764Z,6856.00
2018-11-11T08:53:37.751Z,5228.00
2018-11-11T08:54:37.766Z,5536.00
2018-11-11T08:55:37.735Z,6556.00
2018-11-11T08:56:37.760Z,5988.00
2018-11-11T08:57:37.701Z,7488.00
2018-11-11T08:58:37.693Z,7176.00
2018-11-11T08:59:37.697Z,9496.00
2018-11-11T09:00:37.670Z,10428.00
2018-11-11T09:01:37.658Z,10284.00
2018-11-11T09:02:37.692Z,9368.00
2018-11-11T09:03:37.643Z,9316.00
2018-11-11T09:04:37.661Z,7652.00
2018-11-11T09:05:37.611Z,9628.00
2018-11-11T09:06:37.604Z,9576.00
2018-11-11T09:07:37.598Z,9788.00
2018-11-11T09:08:37.631Z,9828.00
2018-11-11T09:09:37.572Z,9956.00
2018-11-11T09:10:37.563Z,10408.00
2018-11-11T09:11:37.674Z,10704.00
2018-11-11T09:12:37.540Z,9152.00
2018-11-11T09:13:37.526Z,10960.00
2018-11-11T09:14:37.567Z,9744.00
2018-11-11T09:15:37.507Z,9712.00
2018-11-11T09:16:37.490Z,9708.00
2018-11-11T09:17:37.483Z,9980.00
2018-11-11T09:18:37.485Z,10724.00
2018-11-11T09:19:37.463Z,12348.00
2018-11-11T09:20:37.481Z,11728.00
2018-11-11T09:21:37.501Z,9376.00
2018-11-11T09:22:37.434Z,9288.00
2018-11-11T09:23:37.433Z,8540.00
2018-11-11T09:24:37.414Z,9372.00
2018-11-11T09:25:37.406Z,9336.00
2018-11-11T09:26:37.466Z,8788.00
2018-11-11T09:27:37.400Z,9696.00
2018-11-11T09:28:37.388Z,9908.00
2018-11-11T09:29:37.558Z,9540.00
2018-11-11T09:30:37.359Z,9304.00
2018-11-11T09:31:37.376Z,9288.00
2018-11-11T09:32:37.356Z,8760.00
2018-11-11T09:33:37.308Z,9176.00
2018-11-11T09:34:37.313Z,9600.00
2018-11-11T09:35:37.286Z,9712.00
2018-11-11T09:36:37.275Z,9316.00
2018-11-11T09:37:37.275Z,9244.00
2018-11-11T09:38:37.313Z,8456.00
2018-11-11T09:39:37.243Z,9004.00
2018-11-11T09:40:37.238Z,9764.00
2018-11-11T09:41:37.219Z,9484.00
2018-11-11T09:42:37.259Z,8156.00
2018-11-11T09:43:37.217Z,6300.00
2018-11-11T09:44:37.240Z,6024.00
2018-11-11T09:45:37.177Z,6060.00
2018-11-11T09:46:37.173Z,5344.00
2018-11-11T09:47:37.220Z,5480.00
2018-11-11T09:48:37.145Z,5792.00
2018-11-11T09:49:37.136Z,5844.00
2018-11-11T09:50:37.159Z,5584.00
2018-11-11T09:51:37.115Z,5900.00
2018-11-11T09:52:37.179Z,5440.00
2018-11-11T09:53:37.087Z,5228.00
2018-11-11T09:54:37.085Z,5296.00
2018-11-11T09:55:37.087Z,5484.00
2018-11-11T09:56:37.088Z,5456.00
2018-11-11T09:57:37.049Z,5980.00
2018-11-11T09:58:37.106Z,5712.00
2018-11-11T09:59:37.038Z,5348.00
2018-11-11T10:00:37.122Z,5140.00
2018-11-11T10:01:36.997Z,5892.00
2018-11-11T10:02:37.022Z,6068.00
2018-11-11T10:03:36.981Z,5760.00
2018-11-11T10:04:36.969Z,5416.00
2018-11-11T10:05:37.002Z,5636.00
2018-11-11T10:06:37.122Z,5528.00
2018-11-11T10:07:36.973Z,5648.00
2018-11-11T10:08:36.990Z,5760.00
2018-11-11T10:09:36.927Z,7732.00
2018-11-11T10:10:36.948Z,10624.00
2018-11-11T10:11:36.900Z,9720.00
2018-11-11T10:12:36.956Z,8124.00
2018-11-11T10:13:36.873Z,7464.00
2018-11-11T10:14:36.889Z,7132.00
2018-11-11T10:15:36.876Z,7284.00
2018-11-11T10:16:36.850Z,6840.00
2018-11-11T10:17:36.824Z,7124.00
2018-11-11T10:18:36.827Z,7608.00
2018-11-11T10:19:36.900Z,8096.00
2018-11-11T10:20:36.858Z,8580.00
2018-11-11T10:21:36.815Z,7700.00
2018-11-11T10:22:36.906Z,5792.00
2018-11-11T10:23:36.858Z,6184.00
2018-11-11T10:24:36.754Z,6744.00
2018-11-11T10:25:36.740Z,6652.00
2018-11-11T10:26:36.931Z,6868.00
2018-11-11T10:27:36.720Z,6972.00
2018-11-11T10:28:36.724Z,8136.00
2018-11-11T10:29:36.739Z,9524.00
2018-11-11T10:30:36.899Z,8928.00
2018-11-11T10:31:36.746Z,8796.00
2018-11-11T10:32:36.705Z,9576.00
2018-11-11T10:33:36.731Z,11580.00
2018-11-11T10:34:36.655Z,12816.00
2018-11-11T10:35:36.634Z,12076.00
2018-11-11T10:36:36.621Z,12556.00
2018-11-11T10:37:36.751Z,12912.00
2018-11-11T10:38:36.630Z,13136.00
2018-11-11T10:39:36.586Z,14688.00
2018-11-11T10:40:36.587Z,17408.00
2018-11-11T10:41:36.583Z,21312.00
2018-11-11T10:42:36.563Z,21824.00
2018-11-11T10:43:36.579Z,23232.00
2018-11-11T10:44:36.610Z,19072.00
2018-11-11T10:45:36.530Z,17280.00
2018-11-11T10:46:36.517Z,16204.00
2018-11-11T10:47:36.505Z,18656.00
2018-11-11T10:48:36.499Z,19808.00
2018-11-11T10:49:36.488Z,17888.00
2018-11-11T10:50:36.506Z,17056.00
2018-11-11T10:51:36.456Z,17376.00
2018-11-11T10:52:36.454Z,17248.00
2018-11-11T10:53:36.439Z,15584.00
2018-11-11T10:54:36.469Z,15816.00
2018-11-11T10:55:36.416Z,15860.00
2018-11-11T10:56:36.440Z,17280.00
2018-11-11T10:57:36.396Z,17472.00
2018-11-11T10:58:36.390Z,15524.00
2018-11-11T10:59:36.365Z,15404.00
2018-11-11T11:00:36.355Z,15892.00
2018-11-11T11:01:36.366Z,15528.00
2018-11-11T11:02:36.383Z,15824.00
2018-11-11T11:03:36.339Z,14316.00
2018-11-11T11:04:36.333Z,17984.00
2018-11-11T11:05:36.322Z,15532.00
2018-11-11T11:06:36.305Z,15976.00
2018-11-11T11:07:36.295Z,16992.00
2018-11-11T11:08:36.336Z,16544.00
2018-11-11T11:09:36.270Z,18240.00
2018-11-11T11:10:36.248Z,16704.00
2018-11-11T11:11:36.240Z,16608.00
2018-11-11T11:12:36.234Z,17728.00
2018-11-11T11:13:36.362Z,17920.00
2018-11-11T11:14:36.286Z,19328.00
2018-11-11T11:15:36.195Z,19328.00
2018-11-11T11:16:36.182Z,21024.00
2018-11-11T11:17:36.172Z,20160.00
2018-11-11T11:18:36.167Z,14772.00
2018-11-11T11:19:36.151Z,15540.00
2018-11-11T11:20:36.196Z,16168.00
2018-11-11T11:21:36.146Z,14836.00
2018-11-11T11:22:36.121Z,13016.00
2018-11-11T11:23:36.128Z,11388.00
2018-11-11T11:24:36.102Z,10152.00
2018-11-11T11:25:36.093Z,9664.00
2018-11-11T11:26:36.149Z,10568.00
2018-11-11T11:27:36.084Z,10304.00
2018-11-11T11:28:36.065Z,10160.00
2018-11-11T11:29:36.043Z,10196.00
2018-11-11T11:30:36.030Z,9828.00
2018-11-11T11:31:36.092Z,10452.00
2018-11-11T11:32:36.084Z,10764.00
2018-11-11T11:33:36.001Z,10948.00
2018-11-11T11:34:35.988Z,10964.00
2018-11-11T11:35:36.040Z,11112.00
2018-11-11T11:36:36.052Z,11268.00
2018-11-11T11:37:35.978Z,11428.00
2018-11-11T11:38:36.042Z,11736.00
2018-11-11T11:39:35.924Z,12188.00
2018-11-11T11:40:36.129Z,12712.00
2018-11-11T11:41:35.901Z,13124.00
2018-11-11T11:42:35.901Z,13236.00
2018-11-11T11:43:35.885Z,13328.00
2018-11-11T11:44:35.913Z,13524.00
2018-11-11T11:45:35.858Z,14004.00
2018-11-11T11:46:35.847Z,14604.00
2018-11-11T11:47:35.863Z,15528.00
2018-11-11T11:48:35.847Z,16128.00
2018-11-11T11:49:35.813Z,16832.00
2018-11-11T11:50:35.884Z,17568.00
2018-11-11T11:51:35.798Z,17504.00
2018-11-11T11:52:35.784Z,16832.00
2018-11-11T11:53:35.777Z,15588.00
2018-11-11T11:54:35.775Z,14672.00
2018-11-11T11:55:35.746Z,14160.00
2018-11-11T11:56:35.785Z,14484.00
2018-11-11T11:57:35.724Z,14788.00
2018-11-11T11:58:35.728Z,15412.00
2018-11-11T11:59:35.703Z,15800.00
2018-11-11T12:00:35.726Z,16464.00
2018-11-11T12:01:35.679Z,17472.00
2018-11-11T12:02:35.714Z,18048.00
2018-11-11T12:03:35.665Z,17536.00
2018-11-11T12:04:35.651Z,16100.00
2018-11-11T12:05:35.640Z,13708.00
2018-11-11T12:06:35.640Z,11356.00
2018-11-11T12:07:35.615Z,9408.00
2018-11-11T12:08:35.718Z,8576.00
2018-11-11T12:09:35.595Z,9008.00
2018-11-11T12:10:35.585Z,9320.00
2018-11-11T12:11:35.571Z,8492.00
2018-11-11T12:12:35.580Z,8232.00
2018-11-11T12:13:35.552Z,8164.00
2018-11-11T12:14:35.588Z,7608.00
2018-11-11T12:15:35.530Z,6564.00
2018-11-11T12:16:35.533Z,5408.00
2018-11-11T12:17:35.510Z,4784.00
2018-11-11T12:18:35.493Z,4724.00
2018-11-11T12:19:35.513Z,4940.00
2018-11-11T12:20:35.527Z,4832.00
2018-11-11T12:21:35.462Z,4784.00
2018-11-11T12:22:35.452Z,4360.00
2018-11-11T12:23:35.437Z,3864.00
2018-11-11T12:24:35.428Z,3396.00
2018-11-11T12:25:35.441Z,3628.00
2018-11-11T12:26:35.445Z,4060.00
2018-11-11T12:27:35.398Z,4636.00
2018-11-11T12:28:35.388Z,5480.00
2018-11-11T12:29:35.379Z,6208.00
2018-11-11T12:30:35.436Z,6548.00
2018-11-11T12:31:35.425Z,6652.00
2018-11-11T12:32:35.373Z,6952.00
2018-11-11T12:33:35.329Z,7508.00
2018-11-11T12:34:35.333Z,7720.00
2018-11-11T12:35:35.318Z,7668.00
2018-11-11T12:36:35.298Z,7376.00
2018-11-11T12:37:35.289Z,6872.00
2018-11-11T12:38:35.340Z,6276.00